Time;durP1;ratioP1;P1;durP2;ratioP2;P2;SDS_P1;SDS_P2;PMS_P1;PMS_P2;Temp;Humidity;BMP_temperature;BMP_pressure;BME280_temperature;BME280_humidity;BME280_pressure;Samples;Min_cycle;Max_cycle;Signal;HPM_P1;HPM_P2
2024/02/06 00:00:22;;;;;;;4.77;1.73;;;;;16.60;100418.00;;;;2067625;28;20223;-69
2024/02/06 00:01:23;;;;;;;3.27;1.57;;;;;16.70;100408.00;;;;2070961;28;20220;-69
2024/02/06 00:02:23;;;;;;;4.27;1.93;;;;;16.70;100396.00;;;;2069917;28;20211;-69
2024/02/06 00:03:23;;;;;;;3.40;1.40;;;;;16.60;100411.00;;;;2054757;28;20498;-69
2024/02/06 00:04:24;;;;;;;3.37;1.73;;;;;16.70;100409.00;;;;2052978;28;20255;-69
2024/02/06 00:05:24;;;;;;;3.33;1.50;;;;;16.60;100422.00;;;;2069799;28;20221;-69
2024/02/06 00:06:24;;;;;;;2.97;1.20;;;;;16.70;100414.00;;;;2066459;28;20652;-69
2024/02/06 00:07:25;;;;;;;3.40;1.63;;;;;16.70;100400.00;;;;2072010;28;20234;-69
2024/02/06 00:08:25;;;;;;;3.40;1.77;;;;;16.70;100412.00;;;;2070510;28;20215;-69
2024/02/06 00:09:25;;;;;;;4.03;1.37;;;;;16.70;100389.00;;;;2055701;28;20727;-69
2024/02/06 00:10:26;;;;;;;3.30;1.77;;;;;16.70;100396.00;;;;2071828;28;20206;-69
2024/02/06 00:11:26;;;;;;;3.40;1.70;;;;;16.70;100409.00;;;;2061297;28;20273;-69
2024/02/06 00:12:26;;;;;;;3.50;1.67;;;;;16.70;100405.00;;;;2060978;28;20219;-69
2024/02/06 00:13:27;;;;;;;3.20;1.40;;;;;16.70;100402.00;;;;2064572;28;20257;-69
2024/02/06 00:14:27;;;;;;;3.50;1.63;;;;;16.70;100398.00;;;;2058474;28;20274;-69
2024/02/06 00:15:27;;;;;;;2.90;1.60;;;;;16.70;100394.00;;;;2061390;28;20216;-69
2024/02/06 00:16:28;;;;;;;3.30;1.60;;;;;16.70;100404.00;;;;2065147;28;20254;-69
2024/02/06 00:17:28;;;;;;;5.50;1.53;;;;;16.60;100392.00;;;;2069554;28;20218;-69
2024/02/06 00:18:28;;;;;;;3.10;1.40;;;;;16.70;100394.00;;;;2070673;28;20245;-69
2024/02/06 00:19:29;;;;;;;4.87;1.50;;;;;16.70;100399.00;;;;2058498;28;20224;-69
2024/02/06 00:20:29;;;;;;;2.80;1.63;;;;;16.70;100395.00;;;;2071335;28;20684;-69
2024/02/06 00:21:29;;;;;;;3.80;1.63;;;;;16.70;100389.00;;;;2071850;28;20221;-69
2024/02/06 00:22:30;;;;;;;3.33;1.33;;;;;16.70;100382.00;;;;2070351;28;21071;-69
2024/02/06 00:23:30;;;;;;;2.40;1.40;;;;;16.60;100394.00;;;;2070413;28;20277;-69
2024/02/06 00:24:30;;;;;;;4.83;2.10;;;;;16.70;100357.00;;;;2061964;28;20218;-69
2024/02/06 00:25:31;;;;;;;3.00;1.50;;;;;16.70;100391.00;;;;2068413;28;20734;-69
2024/02/06 00:26:31;;;;;;;5.50;1.77;;;;;16.70;100378.00;;;;2055478;28;20227;-69
2024/02/06 00:27:31;;;;;;;3.93;1.53;;;;;16.70;100381.00;;;;2058710;28;20211;-69
2024/02/06 00:28:32;;;;;;;2.37;1.27;;;;;16.60;100374.00;;;;2064668;28;20230;-69
2024/02/06 00:29:32;;;;;;;3.57;1.53;;;;;16.70;100368.00;;;;2059649;28;20226;-69
2024/02/06 00:30:33;;;;;;;4.77;1.50;;;;;16.60;100368.00;;;;2071738;28;20313;-69
2024/02/06 00:31:33;;;;;;;3.13;1.67;;;;;16.60;100381.00;;;;2071714;28;26133;-69
2024/02/06 00:32:33;;;;;;;3.60;1.77;;;;;16.60;100376.00;;;;2067936;28;21790;-69
2024/02/06 00:33:34;;;;;;;2.90;2.03;;;;;16.70;100376.00;;;;2071405;28;20246;-69
2024/02/06 00:34:34;;;;;;;2.90;1.50;;;;;16.70;100386.00;;;;2058411;28;20725;-69
2024/02/06 00:35:34;;;;;;;3.83;1.60;;;;;16.70;100381.00;;;;2061960;28;20640;-69
2024/02/06 00:36:35;;;;;;;3.60;1.43;;;;;16.60;100381.00;;;;2065806;28;20235;-69
2024/02/06 00:37:35;;;;;;;2.20;1.30;;;;;16.70;100377.00;;;;2071657;28;20238;-69
2024/02/06 00:38:35;;;;;;;3.63;1.30;;;;;16.70;100390.00;;;;2069733;28;20222;-69
2024/02/06 00:39:36;;;;;;;6.57;1.47;;;;;16.70;100374.00;;;;2055508;28;20257;-69
2024/02/06 00:40:36;;;;;;;2.87;1.40;;;;;16.70;100376.00;;;;2071605;28;20560;-69
2024/02/06 00:41:37;;;;;;;3.13;1.60;;;;;16.60;100373.00;;;;2071245;28;20588;-69
2024/02/06 00:42:37;;;;;;;2.53;1.25;;;;;16.60;100368.00;;;;2071656;28;20231;-69
2024/02/06 00:43:38;;;;;;;3.10;1.17;;;;;16.70;100376.00;;;;2061993;28;20733;-69
2024/02/06 00:44:41;;;;;;;2.73;1.63;;;;;16.70;100332.00;;;;2050392;28;20223;-69
2024/02/06 00:45:41;;;;;;;2.67;1.17;;;;;16.60;100360.00;;;;2062210;28;20226;-69
2024/02/06 00:46:42;;;;;;;2.40;1.37;;;;;16.70;100370.00;;;;2058535;28;20250;-69
2024/02/06 00:47:42;;;;;;;2.90;1.40;;;;;16.70;100366.00;;;;2061426;28;20220;-69
2024/02/06 00:48:42;;;;;;;3.07;1.30;;;;;16.70;100366.00;;;;2067629;28;20260;-69
2024/02/06 00:49:43;;;;;;;2.67;1.47;;;;;16.70;100361.00;;;;2061647;28;20280;-69
2024/02/06 00:50:44;;;;;;;2.57;1.57;;;;;16.70;100361.00;;;;2061426;28;20224;-69
2024/02/06 00:51:45;;;;;;;3.03;1.70;;;;;16.60;100354.00;;;;2058824;28;20268;-69
2024/02/06 00:52:45;;;;;;;2.65;1.50;;;;;16.70;100356.00;;;;2067398;28;20206;-69
2024/02/06 00:53:46;;;;;;;2.80;1.43;;;;;16.60;100351.00;;;;2061450;28;20619;-69
2024/02/06 00:54:46;;;;;;;3.43;1.30;;;;;16.70;100355.00;;;;2051195;28;20211;-70
2024/02/06 00:55:46;;;;;;;4.90;1.80;;;;;16.60;100352.00;;;;2069944;28;20258;-70
2024/02/06 00:56:47;;;;;;;3.30;1.37;;;;;16.60;100349.00;;;;2061195;28;20230;-70
2024/02/06 00:57:47;;;;;;;5.10;1.60;;;;;16.70;100364.00;;;;2059361;28;20223;-69
2024/02/06 00:58:47;;;;;;;3.63;1.70;;;;;16.60;100343.00;;;;2071412;28;20214;-69
2024/02/06 00:59:48;;;;;;;3.40;1.40;;;;;16.70;100349.00;;;;2061633;28;20216;-69
2024/02/06 01:00:49;;;;;;;3.20;1.60;;;;;16.70;100349.00;;;;2061104;28;20219;-69
2024/02/06 01:01:50;;;;;;;3.60;1.47;;;;;16.70;100350.00;;;;2058078;28;20306;-69
2024/02/06 01:02:50;;;;;;;4.13;1.63;;;;;16.70;100158.00;;;;2064197;28;21232;-69
2024/02/06 01:03:51;;;;;;;4.00;1.70;;;;;16.70;100357.00;;;;2068421;28;20215;-69
2024/02/06 01:04:52;;;;;;;2.77;1.60;;;;;16.70;100347.00;;;;2061078;28;20308;-69
2024/02/06 01:05:52;;;;;;;2.40;1.33;;;;;16.60;100346.00;;;;2071287;28;20261;-69
2024/02/06 01:06:52;;;;;;;3.30;1.60;;;;;16.60;100345.00;;;;2071554;28;20459;-69
2024/02/06 01:07:53;;;;;;;2.97;1.40;;;;;16.60;100351.00;;;;2070354;28;20222;-69
2024/02/06 01:08:53;;;;;;;3.03;1.40;;;;;16.60;100347.00;;;;2070095;28;20219;-69
2024/02/06 01:09:54;;;;;;;2.60;1.20;;;;;16.70;100337.00;;;;2058181;28;20253;-69
2024/02/06 01:10:54;;;;;;;2.40;1.30;;;;;16.70;100334.00;;;;2061325;28;20230;-69
2024/02/06 01:11:54;;;;;;;3.97;1.50;;;;;16.70;100335.00;;;;2058495;28;20223;-69
2024/02/06 01:12:55;;;;;;;3.03;1.40;;;;;16.60;100337.00;;;;2061806;28;20282;-69
2024/02/06 01:13:55;;;;;;;2.73;1.60;;;;;16.60;100335.00;;;;2068293;28;20214;-69
2024/02/06 01:14:57;;;;;;;2.73;1.43;;;;;16.60;100259.00;;;;2058850;28;20316;-69
2024/02/06 01:15:58;;;;;;;3.45;1.70;;;;;16.60;100317.00;;;;2070820;28;20225;-69
2024/02/06 01:16:58;;;;;;;3.95;1.60;;;;;16.60;100324.00;;;;2064408;28;20222;-69
2024/02/06 01:17:59;;;;;;;4.30;1.80;;;;;16.60;100330.00;;;;2065380;28;20211;-69
2024/02/06 01:18:59;;;;;;;2.77;1.40;;;;;16.60;100334.00;;;;2064351;28;20221;-69
2024/02/06 01:19:59;;;;;;;2.70;1.50;;;;;16.70;100325.00;;;;2055455;28;20220;-69
2024/02/06 01:21:00;;;;;;;2.47;1.00;;;;;16.60;100339.00;;;;2067977;28;20216;-69
2024/02/06 01:22:00;;;;;;;3.10;1.40;;;;;16.60;100319.00;;;;2064006;28;20214;-69
2024/02/06 01:23:00;;;;;;;2.40;1.70;;;;;16.70;100321.00;;;;2069319;28;20219;-69
2024/02/06 01:24:01;;;;;;;4.10;1.60;;;;;16.60;100319.00;;;;2070307;28;20219;-69
2024/02/06 01:25:01;;;;;;;3.30;1.07;;;;;16.60;100313.00;;;;2053349;28;20210;-70
2024/02/06 01:26:02;;;;;;;3.07;1.50;;;;;16.60;100317.00;;;;2062160;28;20212;-69
2024/02/06 01:27:03;;;;;;;3.20;1.70;;;;;16.60;100308.00;;;;2063765;28;20233;-69
2024/02/06 01:28:03;;;;;;;4.97;1.50;;;;;16.70;100315.00;;;;2069595;28;20224;-69
2024/02/06 01:29:03;;;;;;;3.33;1.57;;;;;16.60;100315.00;;;;2060948;28;20322;-69
2024/02/06 01:30:04;;;;;;;3.23;1.20;;;;;16.60;100308.00;;;;2071071;28;20226;-69
2024/02/06 01:31:05;;;;;;;3.97;1.97;;;;;16.60;100314.00;;;;2070739;28;20219;-69
2024/02/06 01:32:05;;;;;;;3.00;1.60;;;;;16.70;100290.00;;;;2052485;28;20478;-69
2024/02/06 01:33:06;;;;;;;4.27;1.63;;;;;16.60;100314.00;;;;2054657;28;20208;-70
2024/02/06 01:34:06;;;;;;;2.40;1.40;;;;;16.70;100318.00;;;;2061609;28;20246;-69
2024/02/06 01:35:07;;;;;;;2.70;1.43;;;;;16.50;100320.00;;;;2064870;28;20705;-69
2024/02/06 01:36:07;;;;;;;2.93;1.40;;;;;16.70;100316.00;;;;2070022;28;20636;-69
2024/02/06 01:37:08;;;;;;;3.00;1.50;;;;;16.60;100314.00;;;;2063114;28;20212;-70
2024/02/06 01:38:08;;;;;;;2.57;1.10;;;;;16.60;100316.00;;;;2066097;28;20809;-69
2024/02/06 01:39:08;;;;;;;3.07;1.70;;;;;16.60;100310.00;;;;2060330;28;20310;-69
2024/02/06 01:40:09;;;;;;;3.80;1.30;;;;;16.60;100305.00;;;;2070804;28;20215;-69
2024/02/06 01:41:09;;;;;;;3.27;1.57;;;;;16.60;100309.00;;;;2071374;28;20264;-69
2024/02/06 01:42:09;;;;;;;2.80;1.33;;;;;16.60;100307.00;;;;2064448;28;20215;-69
2024/02/06 01:43:10;;;;;;;2.73;1.30;;;;;16.60;100302.00;;;;2069405;28;20242;-69
2024/02/06 01:44:10;;;;;;;2.83;1.23;;;;;16.60;100303.00;;;;2061202;28;20211;-69
2024/02/06 01:45:11;;;;;;;2.77;1.33;;;;;16.60;100300.00;;;;2062089;28;20289;-69
2024/02/06 01:46:11;;;;;;;3.03;1.70;;;;;16.60;100300.00;;;;2060507;28;20223;-69
2024/02/06 01:47:11;;;;;;;2.37;1.30;;;;;16.40;100295.00;;;;2065850;28;20230;-69
2024/02/06 01:48:12;;;;;;;3.00;1.23;;;;;16.60;100296.00;;;;2062657;28;20290;-69
2024/02/06 01:49:12;;;;;;;2.10;1.10;;;;;16.60;100288.00;;;;2052803;28;20216;-69
2024/02/06 01:50:12;;;;;;;4.23;1.50;;;;;16.60;100290.00;;;;2064291;28;20285;-69
2024/02/06 01:51:15;;;;;;;4.20;1.60;;;;;16.60;100304.00;;;;2070486;28;20294;-69
2024/02/06 01:52:16;;;;;;;3.70;1.60;;;;;16.60;100291.00;;;;2061440;28;20222;-69
2024/02/06 01:53:16;;;;;;;2.10;1.17;;;;;16.60;100286.00;;;;2062067;28;20222;-69
2024/02/06 01:54:16;;;;;;;2.63;1.23;;;;;16.60;100204.00;;;;2044269;28;20320;-69
2024/02/06 01:55:17;;;;;;;3.17;1.50;;;;;16.60;100298.00;;;;2046606;29;20224;-69
2024/02/06 01:56:17;;;;;;;2.37;1.20;;;;;16.60;100288.00;;;;2062376;28;20226;-69
2024/02/06 01:57:18;;;;;;;2.80;1.50;;;;;16.60;100282.00;;;;2052851;28;20271;-70
2024/02/06 01:58:18;;;;;;;3.83;1.47;;;;;16.60;100275.00;;;;2043024;29;20624;-69
2024/02/06 01:59:18;;;;;;;3.87;1.43;;;;;16.60;100284.00;;;;2036028;28;20581;-69
2024/02/06 02:00:18;;;;;;;3.90;1.47;;;;;16.60;100300.00;;;;2054560;28;20791;-69
2024/02/06 02:01:19;;;;;;;3.80;1.30;;;;;16.60;100290.00;;;;2069331;28;20684;-69
2024/02/06 02:02:19;;;;;;;2.13;1.27;;;;;16.60;100304.00;;;;2070710;28;20751;-69
2024/02/06 02:03:19;;;;;;;2.73;1.37;;;;;16.60;100215.00;;;;2062382;28;20219;-69
2024/02/06 02:04:20;;;;;;;2.50;1.40;;;;;16.60;100288.00;;;;2036117;28;20252;-69
2024/02/06 02:05:20;;;;;;;2.70;1.40;;;;;16.60;100288.00;;;;2046752;28;20229;-69
2024/02/06 02:06:20;;;;;;;2.20;1.10;;;;;16.60;100288.00;;;;2063962;28;20321;-69
2024/02/06 02:07:21;;;;;;;2.90;1.40;;;;;16.60;100281.00;;;;2062640;28;20220;-69
2024/02/06 02:08:21;;;;;;;3.90;1.70;;;;;16.60;100281.00;;;;2052702;28;20228;-69
2024/02/06 02:09:21;;;;;;;3.53;1.90;;;;;16.60;100279.00;;;;2044895;28;20225;-69
2024/02/06 02:10:22;;;;;;;3.93;1.30;;;;;16.60;100289.00;;;;2068697;28;20338;-69
2024/02/06 02:11:22;;;;;;;2.70;1.17;;;;;16.60;100288.00;;;;2070647;28;20218;-69
2024/02/06 02:12:23;;;;;;;2.27;1.33;;;;;16.60;100287.00;;;;2069337;28;20215;-69
2024/02/06 02:13:23;;;;;;;2.97;1.20;;;;;16.60;100271.00;;;;2057847;28;20224;-69
2024/02/06 02:14:23;;;;;;;2.30;1.30;;;;;16.60;100275.00;;;;2052011;28;20718;-69
2024/02/06 02:15:24;;;;;;;2.80;1.10;;;;;16.60;100269.00;;;;2060777;28;20413;-69
2024/02/06 02:16:24;;;;;;;1.80;0.93;;;;;16.60;100269.00;;;;2070484;28;20799;-69
2024/02/06 02:17:24;;;;;;;2.93;1.37;;;;;16.70;100279.00;;;;2062435;28;20216;-69
2024/02/06 02:18:35;;;;;;;2.37;1.27;;;;;16.60;100280.00;;;;2053327;28;20228;-69
2024/02/06 02:19:35;;;;;;;2.47;1.20;;;;;16.70;100278.00;;;;2053929;28;20694;-69
2024/02/06 02:20:35;;;;;;;2.73;1.20;;;;;16.60;100265.00;;;;2065948;28;20214;-69
2024/02/06 02:21:38;;;;;;;4.07;1.73;;;;;16.60;100281.00;;;;2060441;28;20209;-69
2024/02/06 02:22:38;;;;;;;2.20;1.30;;;;;16.60;100286.00;;;;2058399;28;20203;-69
2024/02/06 02:23:39;;;;;;;5.33;1.47;;;;;16.70;100261.00;;;;2070951;28;20804;-69
2024/02/06 02:24:39;;;;;;;2.50;1.00;;;;;16.70;100262.00;;;;2057453;28;20650;-69
2024/02/06 02:25:40;;;;;;;4.00;1.50;;;;;16.60;100259.00;;;;2064752;28;20493;-69
2024/02/06 02:26:40;;;;;;;2.07;1.10;;;;;16.60;100206.00;;;;2062499;28;20227;-70
2024/02/06 02:27:40;;;;;;;2.67;1.30;;;;;16.60;100141.00;;;;2048550;28;20250;-69
2024/02/06 02:28:41;;;;;;;3.23;1.30;;;;;16.70;100270.00;;;;2046431;28;20212;-70
2024/02/06 02:29:41;;;;;;;2.50;1.37;;;;;16.60;100267.00;;;;2028627;28;20240;-69
2024/02/06 02:30:42;;;;;;;2.60;1.50;;;;;16.60;100269.00;;;;2054471;28;20218;-69
2024/02/06 02:31:43;;;;;;;3.07;1.43;;;;;16.60;100277.00;;;;2070328;28;20210;-69
2024/02/06 02:32:44;;;;;;;3.07;1.20;;;;;16.70;100240.00;;;;2063602;28;20207;-69
2024/02/06 02:33:44;;;;;;;3.03;1.37;;;;;16.60;100277.00;;;;2061132;28;20239;-70
2024/02/06 02:34:47;;;;;;;3.40;1.03;;;;;16.60;100269.00;;;;2044986;28;20532;-69
2024/02/06 02:35:50;;;;;;;4.32;1.48;;;;;16.60;100269.00;;;;2064118;28;20220;-69
2024/02/06 02:36:51;;;;;;;2.08;1.20;;;;;16.60;100268.00;;;;2071855;28;20215;-69
2024/02/06 02:37:51;;;;;;;2.73;1.27;;;;;16.60;100253.00;;;;2072544;28;20295;-69
2024/02/06 02:38:51;;;;;;;2.57;1.13;;;;;16.60;100190.00;;;;2071089;28;20214;-69
2024/02/06 02:39:52;;;;;;;2.63;1.40;;;;;16.60;100247.00;;;;2054019;28;20227;-69
2024/02/06 02:40:52;;;;;;;2.33;1.13;;;;;16.60;100270.00;;;;2063798;28;20220;-69
2024/02/06 02:41:52;;;;;;;2.43;1.17;;;;;16.60;100253.00;;;;2063398;28;20215;-69
2024/02/06 02:42:53;;;;;;;3.13;1.10;;;;;16.60;100258.00;;;;2055621;28;20299;-69
2024/02/06 02:43:53;;;;;;;2.20;1.20;;;;;16.20;100268.00;;;;2155592;23;20304;-60
2024/02/06 02:44:53;;;;;;;2.63;1.33;;;;;16.60;100257.00;;;;2076256;28;20225;-59
2024/02/06 02:45:54;;;;;;;2.30;1.20;;;;;16.60;100260.00;;;;2085729;28;20210;-59
2024/02/06 02:46:54;;;;;;;3.07;1.33;;;;;16.60;100258.00;;;;2087129;28;20209;-59
2024/02/06 02:47:54;;;;;;;2.90;1.37;;;;;16.60;100257.00;;;;2086167;28;20272;-60
2024/02/06 02:48:55;;;;;;;2.10;1.10;;;;;16.60;100261.00;;;;2086608;28;20811;-60
2024/02/06 02:49:55;;;;;;;2.60;1.30;;;;;16.60;100247.00;;;;2077020;28;20684;-60
2024/02/06 02:50:56;;;;;;;2.77;1.50;;;;;16.60;100240.00;;;;2084998;28;20220;-60
2024/02/06 02:51:56;;;;;;;2.93;1.57;;;;;16.60;100248.00;;;;2086850;28;20221;-59
2024/02/06 02:52:56;;;;;;;4.33;1.90;;;;;16.60;100255.00;;;;2084588;28;20208;-59
2024/02/06 02:53:57;;;;;;;2.40;1.30;;;;;16.60;100250.00;;;;2081665;28;20609;-59
2024/02/06 02:54:57;;;;;;;2.47;1.30;;;;;16.60;100256.00;;;;2064510;28;20228;-60
2024/02/06 02:55:57;;;;;;;2.40;1.10;;;;;16.60;100250.00;;;;2075402;28;20214;-62
2024/02/06 02:56:59;;;;;;;2.30;1.30;;;;;16.60;100236.00;;;;2074336;28;20215;-59
2024/02/06 02:57:59;;;;;;;2.70;1.50;;;;;16.60;100233.00;;;;2074064;28;20236;-58
2024/02/06 02:59:00;;;;;;;2.87;1.47;;;;;16.60;100231.00;;;;2077628;28;20951;-59
2024/02/06 03:00:00;;;;;;;2.60;1.27;;;;;16.60;100232.00;;;;2067255;28;20222;-60
2024/02/06 03:01:00;;;;;;;2.67;1.30;;;;;16.60;100231.00;;;;2076505;28;20309;-60
2024/02/06 03:02:00;;;;;;;3.13;1.33;;;;;16.60;100235.00;;;;2078558;28;20279;-59
2024/02/06 03:03:01;;;;;;;2.67;1.27;;;;;16.60;100246.00;;;;2073111;28;20236;-58
2024/02/06 03:04:01;;;;;;;2.23;1.20;;;;;16.60;100229.00;;;;2077311;28;20219;-63
2024/02/06 03:05:03;;;;;;;3.67;1.00;;;;;16.60;100230.00;;;;2070584;28;20229;-60
2024/02/06 03:06:03;;;;;;;2.38;1.20;;;;;16.60;100228.00;;;;2077721;28;20263;-59
2024/02/06 03:07:04;;;;;;;3.73;1.40;;;;;16.60;100231.00;;;;2078075;28;20267;-59
2024/02/06 03:08:05;;;;;;;2.70;1.40;;;;;16.60;100225.00;;;;2075475;28;20232;-60
2024/02/06 03:09:05;;;;;;;3.00;1.40;;;;;16.60;100231.00;;;;2068871;28;20645;-60
2024/02/06 03:10:05;;;;;;;2.53;1.20;;;;;16.60;100229.00;;;;2078307;28;20632;-60
2024/02/06 03:11:06;;;;;;;2.23;1.23;;;;;16.60;100214.00;;;;2077965;28;20217;-59
2024/02/06 03:12:07;;;;;;;2.60;1.20;;;;;16.60;100220.00;;;;2077568;28;20635;-60
2024/02/06 03:13:07;;;;;;;3.83;1.55;;;;;16.60;100216.00;;;;2077413;28;20221;-60
2024/02/06 03:14:08;;;;;;;3.00;1.30;;;;;16.60;100213.00;;;;2069553;28;20226;-59
2024/02/06 03:15:08;;;;;;;2.30;1.17;;;;;16.60;100213.00;;;;2081105;28;20224;-60
2024/02/06 03:16:08;;;;;;;2.47;1.20;;;;;16.60;100214.00;;;;2077611;28;20268;-61
2024/02/06 03:17:09;;;;;;;2.53;1.30;;;;;16.60;100222.00;;;;2077832;28;20225;-60
2024/02/06 03:18:09;;;;;;;4.77;1.37;;;;;16.60;100208.00;;;;2078664;28;20667;-60
2024/02/06 03:19:09;;;;;;;2.77;1.20;;;;;16.60;100214.00;;;;2068267;28;21036;-61
2024/02/06 03:20:10;;;;;;;3.10;1.20;;;;;16.60;100204.00;;;;2078724;28;20634;-59
2024/02/06 03:21:10;;;;;;;2.50;1.30;;;;;16.60;100197.00;;;;2078111;28;20214;-60
2024/02/06 03:22:11;;;;;;;1.83;0.90;;;;;16.60;100196.00;;;;2072361;28;20243;-59
2024/02/06 03:23:11;;;;;;;2.23;1.30;;;;;16.60;100199.00;;;;2069293;28;20222;-60
2024/02/06 03:24:11;;;;;;;2.23;1.17;;;;;16.60;100192.00;;;;2066826;28;20230;-59
2024/02/06 03:25:12;;;;;;;2.80;1.20;;;;;16.60;100196.00;;;;2077955;28;20210;-60
2024/02/06 03:26:12;;;;;;;3.10;1.20;;;;;16.60;100206.00;;;;2076959;28;20237;-59
2024/02/06 03:27:12;;;;;;;3.27;1.60;;;;;16.60;100200.00;;;;2078188;28;20721;-59
2024/02/06 03:28:13;;;;;;;2.83;1.40;;;;;16.60;100198.00;;;;2076786;28;20625;-60
2024/02/06 03:29:13;;;;;;;2.20;1.20;;;;;16.60;100192.00;;;;2068521;28;20230;-59
2024/02/06 03:30:14;;;;;;;2.37;1.13;;;;;16.60;100193.00;;;;2078290;28;20213;-59
2024/02/06 03:31:14;;;;;;;2.28;1.30;;;;;16.60;100191.00;;;;2078086;28;20218;-60
2024/02/06 03:32:15;;;;;;;2.27;1.20;;;;;16.60;100214.00;;;;2071987;28;20721;-59
2024/02/06 03:33:15;;;;;;;2.90;1.30;;;;;16.60;100191.00;;;;2075503;28;20724;-60
2024/02/06 03:34:16;;;;;;;2.53;1.20;;;;;16.60;100195.00;;;;2068696;28;20690;-59
2024/02/06 03:35:16;;;;;;;3.30;1.20;;;;;16.60;100189.00;;;;2079141;28;20207;-59
2024/02/06 03:36:16;;;;;;;2.57;1.27;;;;;16.60;100174.00;;;;2079302;28;20217;-59
2024/02/06 03:37:18;;;;;;;2.37;1.20;;;;;16.60;100179.00;;;;2072094;28;20578;-59
2024/02/06 03:38:18;;;;;;;3.72;1.42;;;;;16.60;100193.00;;;;2070885;28;20268;-59
2024/02/06 03:39:18;;;;;;;3.07;1.30;;;;;16.60;100189.00;;;;2062391;28;20266;-59
2024/02/06 03:40:19;;;;;;;2.43;1.23;;;;;16.60;100179.00;;;;2083835;28;20214;-59
2024/02/06 03:41:19;;;;;;;3.90;1.23;;;;;16.70;100180.00;;;;2083958;28;20209;-59
2024/02/06 03:42:20;;;;;;;2.40;1.43;;;;;16.60;100175.00;;;;2075623;28;20225;-60
2024/02/06 03:43:20;;;;;;;2.40;1.50;;;;;16.60;100178.00;;;;2078262;28;20210;-59
2024/02/06 03:44:21;;;;;;;3.73;1.37;;;;;16.20;100175.00;;;;2067413;28;20213;-59
2024/02/06 03:45:22;;;;;;;3.03;1.30;;;;;16.60;100182.00;;;;2077962;28;20466;-60
2024/02/06 03:46:22;;;;;;;2.73;1.30;;;;;16.60;100186.00;;;;2077645;28;20774;-59
2024/02/06 03:47:22;;;;;;;2.87;1.17;;;;;16.60;100181.00;;;;2077879;28;20221;-60
2024/02/06 03:48:23;;;;;;;4.13;1.40;;;;;16.60;100178.00;;;;2077736;28;20300;-60
2024/02/06 03:49:23;;;;;;;2.73;1.40;;;;;16.60;100185.00;;;;2067076;28;20230;-59
2024/02/06 03:50:24;;;;;;;3.30;1.20;;;;;16.60;100185.00;;;;2078082;28;20223;-60
2024/02/06 03:51:24;;;;;;;3.00;1.50;;;;;16.60;100183.00;;;;2078071;28;20671;-59
2024/02/06 03:52:24;;;;;;;3.10;1.20;;;;;16.70;100176.00;;;;2077643;28;20238;-59
2024/02/06 03:53:25;;;;;;;2.27;1.10;;;;;16.70;100175.00;;;;2078235;28;20662;-59
2024/02/06 03:54:25;;;;;;;2.97;1.30;;;;;16.70;100172.00;;;;2067550;28;21100;-60
2024/02/06 03:55:26;;;;;;;3.40;1.80;;;;;16.70;100177.00;;;;2078266;28;20649;-59
2024/02/06 03:56:27;;;;;;;3.20;1.50;;;;;16.60;100174.00;;;;2072314;28;20468;-60
2024/02/06 03:57:27;;;;;;;2.40;1.23;;;;;16.60;100172.00;;;;2077426;28;20612;-59
2024/02/06 03:58:28;;;;;;;3.00;1.30;;;;;16.60;100182.00;;;;2075743;28;21052;-59
2024/02/06 03:59:28;;;;;;;2.13;1.10;;;;;16.60;100030.00;;;;2068547;28;20214;-60
2024/02/06 04:00:29;;;;;;;2.70;1.30;;;;;16.60;100028.00;;;;2077634;28;20632;-60
2024/02/06 04:01:29;;;;;;;2.23;1.30;;;;;16.60;100175.00;;;;2076728;28;20283;-59
2024/02/06 04:02:29;;;;;;;2.57;1.40;;;;;16.70;100174.00;;;;2078051;28;20249;-58
2024/02/06 04:03:29;;;;;;;2.43;1.33;;;;;16.60;100175.00;;;;2073574;28;20229;-59
2024/02/06 04:04:30;;;;;;;2.47;1.47;;;;;16.60;100184.00;;;;2060584;28;20214;-58
2024/02/06 04:05:30;;;;;;;2.13;1.17;;;;;16.60;100172.00;;;;2077147;28;20224;-59
2024/02/06 04:06:31;;;;;;;2.50;1.20;;;;;16.60;100194.00;;;;2077659;28;20298;-60
2024/02/06 04:07:31;;;;;;;3.10;1.53;;;;;16.70;100178.00;;;;2077901;28;20679;-60
2024/02/06 04:08:31;;;;;;;2.47;1.30;;;;;16.60;100183.00;;;;2076393;28;20728;-60
2024/02/06 04:09:31;;;;;;;2.30;1.10;;;;;16.60;100184.00;;;;2071600;28;20245;-59
2024/02/06 04:10:32;;;;;;;4.43;1.33;;;;;16.60;100179.00;;;;2085314;28;20228;-60
2024/02/06 04:11:33;;;;;;;3.13;1.63;;;;;16.60;100178.00;;;;2081875;28;21059;-60
2024/02/06 04:12:33;;;;;;;3.20;1.10;;;;;16.60;100176.00;;;;2077611;28;20214;-60
2024/02/06 04:13:33;;;;;;;2.73;1.13;;;;;16.60;100174.00;;;;2077377;28;20241;-60
2024/02/06 04:14:34;;;;;;;2.07;1.17;;;;;16.60;100183.00;;;;2068516;28;20222;-60
2024/02/06 04:15:35;;;;;;;2.43;1.00;;;;;16.60;100170.00;;;;2074856;28;20217;-60
2024/02/06 04:16:35;;;;;;;3.03;1.30;;;;;16.60;100170.00;;;;2070490;28;20215;-62
2024/02/06 04:17:36;;;;;;;2.60;1.20;;;;;16.60;100174.00;;;;2076986;28;20218;-63
2024/02/06 04:18:36;;;;;;;2.87;1.10;;;;;16.60;100177.00;;;;2077717;28;20279;-61
2024/02/06 04:19:36;;;;;;;2.67;1.37;;;;;16.60;100179.00;;;;2061306;28;20227;-59
2024/02/06 04:20:37;;;;;;;2.13;1.27;;;;;16.60;100184.00;;;;2074272;28;20294;-59
2024/02/06 04:21:38;;;;;;;2.33;1.13;;;;;16.60;100172.00;;;;2078272;28;20221;-58
2024/02/06 04:22:38;;;;;;;2.40;1.38;;;;;16.60;100174.00;;;;2076348;28;20209;-59
2024/02/06 04:23:38;;;;;;;2.37;1.20;;;;;16.60;100169.00;;;;2070697;28;20670;-60
2024/02/06 04:24:39;;;;;;;2.07;1.07;;;;;16.60;100167.00;;;;2067966;28;20739;-60
2024/02/06 04:25:39;;;;;;;3.00;0.90;;;;;16.60;100163.00;;;;2076203;28;20275;-58
2024/02/06 04:26:40;;;;;;;2.73;1.27;;;;;16.60;100155.00;;;;2078068;28;20201;-59
2024/02/06 04:27:40;;;;;;;3.43;1.53;;;;;16.60;100158.00;;;;2077034;28;20212;-60
2024/02/06 04:28:41;;;;;;;2.80;1.33;;;;;16.70;100167.00;;;;2077932;28;20238;-60
2024/02/06 04:29:41;;;;;;;2.37;1.17;;;;;16.60;100156.00;;;;2067695;28;21995;-61
2024/02/06 04:30:41;;;;;;;2.17;1.40;;;;;16.60;100162.00;;;;2078244;28;21242;-60
2024/02/06 04:31:42;;;;;;;2.80;0.80;;;;;16.60;100160.00;;;;2077921;28;20768;-59
2024/02/06 04:32:42;;;;;;;3.23;1.30;;;;;16.60;100173.00;;;;2077208;28;20218;-60
2024/02/06 04:33:42;;;;;;;2.43;1.30;;;;;16.60;100154.00;;;;2078062;28;20215;-59
2024/02/06 04:34:43;;;;;;;2.13;1.07;;;;;16.60;100149.00;;;;2064904;28;20275;-60
2024/02/06 04:35:43;;;;;;;2.60;1.20;;;;;16.60;100160.00;;;;2068904;28;20206;-59
2024/02/06 04:36:44;;;;;;;2.57;1.30;;;;;16.60;100154.00;;;;2071873;28;20240;-59
2024/02/06 04:37:44;;;;;;;3.30;1.30;;;;;16.60;100161.00;;;;2075802;28;20214;-59
2024/02/06 04:38:44;;;;;;;3.93;1.30;;;;;16.60;100155.00;;;;2071024;28;20222;-60
2024/02/06 04:39:45;;;;;;;2.33;1.03;;;;;16.60;100154.00;;;;2066389;28;20213;-58
2024/02/06 04:40:45;;;;;;;6.80;1.53;;;;;16.70;100156.00;;;;2071036;28;20408;-59
2024/02/06 04:41:46;;;;;;;3.23;1.53;;;;;16.60;100165.00;;;;2077389;28;20231;-59
2024/02/06 04:42:47;;;;;;;3.45;1.15;;;;;16.60;100154.00;;;;2076208;28;20210;-60
2024/02/06 04:43:47;;;;;;;2.40;1.23;;;;;16.60;100154.00;;;;2070286;28;20245;-59
2024/02/06 04:44:47;;;;;;;3.00;1.70;;;;;16.60;100165.00;;;;2061766;28;20217;-59
2024/02/06 04:45:48;;;;;;;2.77;1.10;;;;;16.60;100149.00;;;;2075313;28;20706;-60
2024/02/06 04:46:48;;;;;;;2.10;1.10;;;;;16.60;100162.00;;;;2076534;28;20351;-60
2024/02/06 04:47:48;;;;;;;2.47;1.00;;;;;16.60;100158.00;;;;2078104;28;20213;-60
2024/02/06 04:48:49;;;;;;;2.60;1.57;;;;;16.60;100154.00;;;;2077369;28;20210;-59
2024/02/06 04:49:49;;;;;;;3.07;1.37;;;;;16.60;100149.00;;;;2067199;28;20241;-61
2024/02/06 04:50:49;;;;;;;2.70;1.30;;;;;16.60;100154.00;;;;2076459;28;20214;-60
2024/02/06 04:51:50;;;;;;;1.90;1.10;;;;;16.60;100162.00;;;;2077021;28;20263;-59
2024/02/06 04:52:50;;;;;;;2.07;1.10;;;;;16.60;100158.00;;;;2073797;28;20573;-59
2024/02/06 04:53:51;;;;;;;3.03;1.30;;;;;16.60;100155.00;;;;2073579;28;20233;-59
2024/02/06 04:54:51;;;;;;;3.13;1.30;;;;;16.60;100161.00;;;;2059933;28;20215;-61
2024/02/06 04:55:52;;;;;;;2.27;0.93;;;;;16.60;100166.00;;;;2074807;28;21172;-60
2024/02/06 04:56:53;;;;;;;3.25;1.80;;;;;16.60;100164.00;;;;2077892;28;20877;-59
2024/02/06 04:57:53;;;;;;;4.20;1.60;;;;;16.60;100153.00;;;;2075622;28;20237;-58
2024/02/06 04:58:53;;;;;;;2.33;0.90;;;;;16.60;100153.00;;;;2077537;28;20213;-58